sensor_id;sensor_type;location;lat;lon;timestamp;P1;durP1;ratioP1;P2;durP2;ratioP2
8777;SDS011;4425;50.872;4.712;2023-01-15T00:01:32;2.67;;;2.17;;
8777;SDS011;4425;50.872;4.712;2023-01-15T00:04:04;2.60;;;1.90;;
8777;SDS011;4425;50.872;4.712;2023-01-15T00:06:36;1.60;;;1.50;;
8777;SDS011;4425;50.872;4.712;2023-01-15T00:09:09;5.77;;;1.67;;
8777;SDS011;4425;50.872;4.712;2023-01-15T00:11:40;6.43;;;1.60;;
8777;SDS011;4425;50.872;4.712;2023-01-15T00:14:08;2.63;;;1.43;;
8777;SDS011;4425;50.872;4.712;2023-01-15T00:16:37;2.40;;;1.50;;
8777;SDS011;4425;50.872;4.712;2023-01-15T00:19:09;3.93;;;1.60;;
8777;SDS011;4425;50.872;4.712;2023-01-15T00:21:40;3.20;;;1.80;;
8777;SDS011;4425;50.872;4.712;2023-01-15T00:24:09;4.03;;;1.80;;
8777;SDS011;4425;50.872;4.712;2023-01-15T00:26:55;2.80;;;1.70;;
8777;SDS011;4425;50.872;4.712;2023-01-15T00:29:41;3.93;;;1.50;;
8777;SDS011;4425;50.872;4.712;2023-01-15T00:32:11;1.67;;;1.50;;
8777;SDS011;4425;50.872;4.712;2023-01-15T00:34:40;5.73;;;1.67;;
8777;SDS011;4425;50.872;4.712;2023-01-15T00:37:08;6.77;;;1.80;;
8777;SDS011;4425;50.872;4.712;2023-01-15T00:39:36;2.87;;;1.60;;
8777;SDS011;4425;50.872;4.712;2023-01-15T00:42:04;4.50;;;1.80;;
8777;SDS011;4425;50.872;4.712;2023-01-15T00:44:36;7.43;;;1.80;;
8777;SDS011;4425;50.872;4.712;2023-01-15T00:47:03;2.53;;;1.70;;
8777;SDS011;4425;50.872;4.712;2023-01-15T00:49:40;3.43;;;1.60;;
8777;SDS011;4425;50.872;4.712;2023-01-15T00:52:15;4.13;;;2.07;;
8777;SDS011;4425;50.872;4.712;2023-01-15T00:54:47;9.97;;;2.20;;
8777;SDS011;4425;50.872;4.712;2023-01-15T00:57:19;6.07;;;1.90;;
8777;SDS011;4425;50.872;4.712;2023-01-15T00:59:47;5.67;;;1.67;;
8777;SDS011;4425;50.872;4.712;2023-01-15T01:04:48;4.63;;;1.97;;
8777;SDS011;4425;50.872;4.712;2023-01-15T01:07:24;3.43;;;1.97;;
8777;SDS011;4425;50.872;4.712;2023-01-15T01:09:54;6.10;;;2.37;;
8777;SDS011;4425;50.872;4.712;2023-01-15T01:12:23;9.63;;;2.60;;
8777;SDS011;4425;50.872;4.712;2023-01-15T01:14:50;4.97;;;2.00;;
8777;SDS011;4425;50.872;4.712;2023-01-15T01:17:17;9.10;;;2.17;;
8777;SDS011;4425;50.872;4.712;2023-01-15T01:19:47;8.20;;;2.27;;
8777;SDS011;4425;50.872;4.712;2023-01-15T01:22:15;9.23;;;2.10;;
8777;SDS011;4425;50.872;4.712;2023-01-15T01:24:44;9.27;;;2.20;;
8777;SDS011;4425;50.872;4.712;2023-01-15T01:27:17;5.87;;;2.33;;
8777;SDS011;4425;50.872;4.712;2023-01-15T01:29:45;13.37;;;2.33;;
8777;SDS011;4425;50.872;4.712;2023-01-15T01:32:15;14.60;;;2.90;;
8777;SDS011;4425;50.872;4.712;2023-01-15T01:34:43;10.23;;;2.30;;
8777;SDS011;4425;50.872;4.712;2023-01-15T01:37:10;6.03;;;2.03;;
8777;SDS011;4425;50.872;4.712;2023-01-15T01:39:39;7.03;;;2.40;;
8777;SDS011;4425;50.872;4.712;2023-01-15T01:42:08;6.40;;;2.20;;
8777;SDS011;4425;50.872;4.712;2023-01-15T01:45:00;9.37;;;2.63;;
8777;SDS011;4425;50.872;4.712;2023-01-15T01:47:43;7.57;;;2.30;;
8777;SDS011;4425;50.872;4.712;2023-01-15T01:50:11;9.77;;;2.43;;
8777;SDS011;4425;50.872;4.712;2023-01-15T01:52:41;8.77;;;2.30;;
8777;SDS011;4425;50.872;4.712;2023-01-15T01:55:13;7.10;;;2.80;;
8777;SDS011;4425;50.872;4.712;2023-01-15T01:57:44;13.47;;;2.47;;
8777;SDS011;4425;50.872;4.712;2023-01-15T02:00:14;6.03;;;2.20;;
8777;SDS011;4425;50.872;4.712;2023-01-15T02:02:45;7.70;;;2.33;;
8777;SDS011;4425;50.872;4.712;2023-01-15T02:05:17;7.57;;;2.33;;
8777;SDS011;4425;50.872;4.712;2023-01-15T02:07:51;8.83;;;2.20;;
8777;SDS011;4425;50.872;4.712;2023-01-15T02:10:22;8.73;;;2.47;;
8777;SDS011;4425;50.872;4.712;2023-01-15T02:12:51;6.87;;;2.53;;
8777;SDS011;4425;50.872;4.712;2023-01-15T02:15:27;4.23;;;2.27;;
8777;SDS011;4425;50.872;4.712;2023-01-15T02:18:00;6.93;;;2.27;;
8777;SDS011;4425;50.872;4.712;2023-01-15T02:20:34;7.70;;;2.47;;
8777;SDS011;4425;50.872;4.712;2023-01-15T02:23:17;8.03;;;2.27;;
8777;SDS011;4425;50.872;4.712;2023-01-15T02:26:26;11.90;;;2.50;;
8777;SDS011;4425;50.872;4.712;2023-01-15T02:29:09;10.17;;;2.50;;
8777;SDS011;4425;50.872;4.712;2023-01-15T02:31:47;7.47;;;2.50;;
8777;SDS011;4425;50.872;4.712;2023-01-15T02:34:19;8.37;;;2.40;;
8777;SDS011;4425;50.872;4.712;2023-01-15T02:36:50;6.70;;;2.10;;
8777;SDS011;4425;50.872;4.712;2023-01-15T02:39:24;9.30;;;2.30;;
8777;SDS011;4425;50.872;4.712;2023-01-15T02:41:55;6.40;;;1.97;;
8777;SDS011;4425;50.872;4.712;2023-01-15T02:44:28;8.70;;;2.57;;
8777;SDS011;4425;50.872;4.712;2023-01-15T02:46:58;11.17;;;2.50;;
8777;SDS011;4425;50.872;4.712;2023-01-15T02:49:27;10.23;;;2.53;;
8777;SDS011;4425;50.872;4.712;2023-01-15T02:51:57;4.63;;;1.97;;
8777;SDS011;4425;50.872;4.712;2023-01-15T02:54:30;10.53;;;2.60;;
8777;SDS011;4425;50.872;4.712;2023-01-15T02:57:02;10.53;;;2.07;;
8777;SDS011;4425;50.872;4.712;2023-01-15T02:59:33;10.00;;;2.40;;
8777;SDS011;4425;50.872;4.712;2023-01-15T03:02:05;11.77;;;2.17;;
8777;SDS011;4425;50.872;4.712;2023-01-15T03:04:37;8.40;;;2.43;;
8777;SDS011;4425;50.872;4.712;2023-01-15T03:07:11;8.67;;;2.30;;
8777;SDS011;4425;50.872;4.712;2023-01-15T03:09:46;8.50;;;2.47;;
8777;SDS011;4425;50.872;4.712;2023-01-15T03:12:18;6.13;;;2.30;;
8777;SDS011;4425;50.872;4.712;2023-01-15T03:14:55;10.83;;;2.57;;
8777;SDS011;4425;50.872;4.712;2023-01-15T03:20:03;7.60;;;2.13;;
8777;SDS011;4425;50.872;4.712;2023-01-15T03:22:35;7.87;;;1.90;;
8777;SDS011;4425;50.872;4.712;2023-01-15T03:25:08;7.47;;;2.03;;
8777;SDS011;4425;50.872;4.712;2023-01-15T03:27:40;8.83;;;2.37;;
8777;SDS011;4425;50.872;4.712;2023-01-15T03:30:17;9.63;;;2.20;;
8777;SDS011;4425;50.872;4.712;2023-01-15T03:32:47;6.53;;;2.00;;
8777;SDS011;4425;50.872;4.712;2023-01-15T03:38:09;13.60;;;2.30;;
8777;SDS011;4425;50.872;4.712;2023-01-15T03:40:42;8.53;;;2.03;;
8777;SDS011;4425;50.872;4.712;2023-01-15T03:43:22;8.70;;;2.10;;
8777;SDS011;4425;50.872;4.712;2023-01-15T03:46:11;7.37;;;2.23;;
8777;SDS011;4425;50.872;4.712;2023-01-15T03:48:47;7.23;;;2.10;;
8777;SDS011;4425;50.872;4.712;2023-01-15T03:51:23;7.27;;;2.33;;
8777;SDS011;4425;50.872;4.712;2023-01-15T03:53:59;7.73;;;1.93;;
8777;SDS011;4425;50.872;4.712;2023-01-15T03:56:35;7.40;;;2.30;;
8777;SDS011;4425;50.872;4.712;2023-01-15T03:59:14;7.03;;;2.00;;
8777;SDS011;4425;50.872;4.712;2023-01-15T04:01:49;8.87;;;2.67;;
8777;SDS011;4425;50.872;4.712;2023-01-15T04:04:17;9.20;;;1.97;;
8777;SDS011;4425;50.872;4.712;2023-01-15T04:06:47;4.40;;;1.77;;
8777;SDS011;4425;50.872;4.712;2023-01-15T04:09:17;6.73;;;2.23;;
8777;SDS011;4425;50.872;4.712;2023-01-15T04:11:45;9.10;;;2.30;;
8777;SDS011;4425;50.872;4.712;2023-01-15T04:14:15;7.30;;;2.00;;
8777;SDS011;4425;50.872;4.712;2023-01-15T04:16:42;6.47;;;2.57;;
8777;SDS011;4425;50.872;4.712;2023-01-15T04:19:10;5.53;;;1.70;;
8777;SDS011;4425;50.872;4.712;2023-01-15T04:21:42;4.07;;;1.93;;
8777;SDS011;4425;50.872;4.712;2023-01-15T04:24:10;7.77;;;1.60;;
8777;SDS011;4425;50.872;4.712;2023-01-15T04:26:38;4.47;;;1.60;;
8777;SDS011;4425;50.872;4.712;2023-01-15T04:29:11;5.93;;;1.60;;
8777;SDS011;4425;50.872;4.712;2023-01-15T04:31:39;5.47;;;1.87;;
8777;SDS011;4425;50.872;4.712;2023-01-15T04:34:08;5.60;;;1.77;;
8777;SDS011;4425;50.872;4.712;2023-01-15T04:36:35;5.37;;;1.93;;
8777;SDS011;4425;50.872;4.712;2023-01-15T04:39:05;8.97;;;2.10;;
8777;SDS011;4425;50.872;4.712;2023-01-15T04:41:33;4.87;;;1.83;;
8777;SDS011;4425;50.872;4.712;2023-01-15T04:44:18;6.50;;;1.97;;
8777;SDS011;4425;50.872;4.712;2023-01-15T04:46:48;9.60;;;1.80;;
8777;SDS011;4425;50.872;4.712;2023-01-15T04:49:17;7.13;;;1.93;;
8777;SDS011;4425;50.872;4.712;2023-01-15T04:51:44;5.37;;;1.90;;
8777;SDS011;4425;50.872;4.712;2023-01-15T04:54:13;7.07;;;1.93;;
8777;SDS011;4425;50.872;4.712;2023-01-15T04:56:48;7.97;;;2.17;;
8777;SDS011;4425;50.872;4.712;2023-01-15T04:59:19;5.80;;;1.87;;
8777;SDS011;4425;50.872;4.712;2023-01-15T05:01:51;3.23;;;1.40;;
8777;SDS011;4425;50.872;4.712;2023-01-15T05:04:19;8.07;;;2.07;;
8777;SDS011;4425;50.872;4.712;2023-01-15T05:06:49;6.47;;;2.13;;
8777;SDS011;4425;50.872;4.712;2023-01-15T05:09:18;7.40;;;2.57;;
8777;SDS011;4425;50.872;4.712;2023-01-15T05:11:45;6.53;;;1.80;;
8777;SDS011;4425;50.872;4.712;2023-01-15T05:14:13;3.30;;;2.00;;
8777;SDS011;4425;50.872;4.712;2023-01-15T05:16:41;8.53;;;2.00;;
8777;SDS011;4425;50.872;4.712;2023-01-15T05:19:10;9.43;;;2.10;;
8777;SDS011;4425;50.872;4.712;2023-01-15T05:21:42;5.17;;;1.60;;
8777;SDS011;4425;50.872;4.712;2023-01-15T05:24:10;7.53;;;1.77;;
8777;SDS011;4425;50.872;4.712;2023-01-15T05:26:39;5.60;;;2.07;;
8777;SDS011;4425;50.872;4.712;2023-01-15T05:29:09;5.93;;;1.90;;
8777;SDS011;4425;50.872;4.712;2023-01-15T05:31:39;6.70;;;1.77;;
8777;SDS011;4425;50.872;4.712;2023-01-15T05:34:11;8.63;;;1.50;;
8777;SDS011;4425;50.872;4.712;2023-01-15T05:36:43;6.07;;;1.90;;
8777;SDS011;4425;50.872;4.712;2023-01-15T05:39:11;5.53;;;1.97;;
8777;SDS011;4425;50.872;4.712;2023-01-15T05:41:40;6.70;;;1.87;;
8777;SDS011;4425;50.872;4.712;2023-01-15T05:44:18;4.20;;;1.50;;
8777;SDS011;4425;50.872;4.712;2023-01-15T05:46:47;6.13;;;1.93;;
8777;SDS011;4425;50.872;4.712;2023-01-15T05:49:19;4.90;;;1.50;;
8777;SDS011;4425;50.872;4.712;2023-01-15T05:51:49;4.23;;;1.30;;
8777;SDS011;4425;50.872;4.712;2023-01-15T05:54:18;5.37;;;1.77;;
8777;SDS011;4425;50.872;4.712;2023-01-15T05:56:47;8.33;;;1.73;;
8777;SDS011;4425;50.872;4.712;2023-01-15T05:59:17;4.87;;;1.77;;
8777;SDS011;4425;50.872;4.712;2023-01-15T06:01:46;3.60;;;1.57;;
8777;SDS011;4425;50.872;4.712;2023-01-15T06:04:14;4.53;;;1.50;;
8777;SDS011;4425;50.872;4.712;2023-01-15T06:06:47;3.27;;;1.40;;
8777;SDS011;4425;50.872;4.712;2023-01-15T06:09:16;3.07;;;1.30;;
8777;SDS011;4425;50.872;4.712;2023-01-15T06:11:45;4.20;;;1.70;;
8777;SDS011;4425;50.872;4.712;2023-01-15T06:14:13;6.37;;;1.40;;
8777;SDS011;4425;50.872;4.712;2023-01-15T06:16:46;4.70;;;1.30;;
8777;SDS011;4425;50.872;4.712;2023-01-15T06:19:14;4.17;;;1.67;;
8777;SDS011;4425;50.872;4.712;2023-01-15T06:21:52;3.60;;;1.60;;
8777;SDS011;4425;50.872;4.712;2023-01-15T06:24:19;4.20;;;1.47;;
8777;SDS011;4425;50.872;4.712;2023-01-15T06:26:47;5.90;;;1.57;;
8777;SDS011;4425;50.872;4.712;2023-01-15T06:29:14;4.20;;;1.30;;
8777;SDS011;4425;50.872;4.712;2023-01-15T06:34:24;3.73;;;1.40;;
8777;SDS011;4425;50.872;4.712;2023-01-15T06:36:54;2.83;;;1.23;;
8777;SDS011;4425;50.872;4.712;2023-01-15T06:39:22;4.00;;;1.30;;
8777;SDS011;4425;50.872;4.712;2023-01-15T06:41:53;1.80;;;1.17;;
8777;SDS011;4425;50.872;4.712;2023-01-15T06:44:41;1.77;;;1.20;;
8777;SDS011;4425;50.872;4.712;2023-01-15T06:47:28;4.20;;;1.20;;
8777;SDS011;4425;50.872;4.712;2023-01-15T06:49:57;2.97;;;1.33;;
8777;SDS011;4425;50.872;4.712;2023-01-15T06:52:32;1.40;;;1.20;;
8777;SDS011;4425;50.872;4.712;2023-01-15T06:55:00;2.03;;;1.20;;
8777;SDS011;4425;50.872;4.712;2023-01-15T06:57:31;4.40;;;1.47;;
8777;SDS011;4425;50.872;4.712;2023-01-15T06:59:59;3.07;;;1.30;;
8777;SDS011;4425;50.872;4.712;2023-01-15T07:02:28;5.60;;;1.57;;
8777;SDS011;4425;50.872;4.712;2023-01-15T07:04:55;5.13;;;1.57;;
8777;SDS011;4425;50.872;4.712;2023-01-15T07:07:23;6.77;;;2.00;;
8777;SDS011;4425;50.872;4.712;2023-01-15T07:09:51;4.47;;;2.00;;
8777;SDS011;4425;50.872;4.712;2023-01-15T07:12:20;6.33;;;1.80;;
8777;SDS011;4425;50.872;4.712;2023-01-15T07:14:51;4.60;;;1.90;;
8777;SDS011;4425;50.872;4.712;2023-01-15T07:17:20;5.43;;;1.90;;
8777;SDS011;4425;50.872;4.712;2023-01-15T07:19:48;9.13;;;1.90;;
8777;SDS011;4425;50.872;4.712;2023-01-15T07:22:15;6.03;;;2.00;;
8777;SDS011;4425;50.872;4.712;2023-01-15T07:24:46;6.83;;;1.83;;
8777;SDS011;4425;50.872;4.712;2023-01-15T07:27:14;5.60;;;1.80;;
8777;SDS011;4425;50.872;4.712;2023-01-15T07:29:43;8.97;;;2.10;;
8777;SDS011;4425;50.872;4.712;2023-01-15T07:32:18;4.33;;;1.87;;
8777;SDS011;4425;50.872;4.712;2023-01-15T07:34:45;9.07;;;2.23;;
8777;SDS011;4425;50.872;4.712;2023-01-15T07:37:13;4.70;;;1.80;;
8777;SDS011;4425;50.872;4.712;2023-01-15T07:39:40;4.93;;;2.10;;
8777;SDS011;4425;50.872;4.712;2023-01-15T07:42:08;6.73;;;1.83;;
8777;SDS011;4425;50.872;4.712;2023-01-15T07:44:57;5.90;;;1.87;;
8777;SDS011;4425;50.872;4.712;2023-01-15T07:47:41;6.73;;;2.40;;
8777;SDS011;4425;50.872;4.712;2023-01-15T07:50:27;4.97;;;2.10;;
8777;SDS011;4425;50.872;4.712;2023-01-15T07:52:54;8.43;;;2.00;;
8777;SDS011;4425;50.872;4.712;2023-01-15T07:55:24;11.73;;;2.20;;
8777;SDS011;4425;50.872;4.712;2023-01-15T07:57:52;6.93;;;2.00;;
8777;SDS011;4425;50.872;4.712;2023-01-15T08:00:33;5.73;;;2.13;;
8777;SDS011;4425;50.872;4.712;2023-01-15T08:03:01;5.53;;;1.80;;
8777;SDS011;4425;50.872;4.712;2023-01-15T08:05:34;11.57;;;2.00;;
8777;SDS011;4425;50.872;4.712;2023-01-15T08:08:04;7.80;;;2.33;;
8777;SDS011;4425;50.872;4.712;2023-01-15T08:10:33;5.63;;;1.83;;
8777;SDS011;4425;50.872;4.712;2023-01-15T08:13:20;9.13;;;2.37;;
8777;SDS011;4425;50.872;4.712;2023-01-15T08:16:09;6.60;;;1.87;;
8777;SDS011;4425;50.872;4.712;2023-01-15T08:18:37;3.33;;;1.70;;
8777;SDS011;4425;50.872;4.712;2023-01-15T08:21:11;9.33;;;2.33;;
8777;SDS011;4425;50.872;4.712;2023-01-15T08:23:39;5.80;;;1.90;;
8777;SDS011;4425;50.872;4.712;2023-01-15T08:26:07;10.00;;;1.93;;
8777;SDS011;4425;50.872;4.712;2023-01-15T08:28:34;9.50;;;2.20;;
8777;SDS011;4425;50.872;4.712;2023-01-15T08:31:01;7.40;;;1.90;;
8777;SDS011;4425;50.872;4.712;2023-01-15T08:33:32;10.87;;;2.00;;
8777;SDS011;4425;50.872;4.712;2023-01-15T08:35:59;7.40;;;2.23;;
8777;SDS011;4425;50.872;4.712;2023-01-15T08:38:28;8.70;;;2.30;;
8777;SDS011;4425;50.872;4.712;2023-01-15T08:40:55;6.63;;;2.57;;
8777;SDS011;4425;50.872;4.712;2023-01-15T08:43:26;6.30;;;2.07;;
8777;SDS011;4425;50.872;4.712;2023-01-15T08:45:56;9.30;;;2.07;;
8777;SDS011;4425;50.872;4.712;2023-01-15T08:48:26;5.47;;;2.30;;
8777;SDS011;4425;50.872;4.712;2023-01-15T08:50:56;5.27;;;1.70;;
8777;SDS011;4425;50.872;4.712;2023-01-15T08:53:24;5.97;;;2.07;;
8777;SDS011;4425;50.872;4.712;2023-01-15T08:55:54;7.03;;;2.17;;
8777;SDS011;4425;50.872;4.712;2023-01-15T08:58:22;8.00;;;2.30;;
8777;SDS011;4425;50.872;4.712;2023-01-15T09:00:50;9.77;;;2.57;;
8777;SDS011;4425;50.872;4.712;2023-01-15T09:03:18;8.07;;;2.30;;
8777;SDS011;4425;50.872;4.712;2023-01-15T09:05:47;10.00;;;2.50;;
8777;SDS011;4425;50.872;4.712;2023-01-15T09:08:18;9.77;;;2.07;;
8777;SDS011;4425;50.872;4.712;2023-01-15T09:10:49;7.60;;;2.10;;
8777;SDS011;4425;50.872;4.712;2023-01-15T09:13:17;7.33;;;2.47;;
8777;SDS011;4425;50.872;4.712;2023-01-15T09:15:47;9.67;;;2.23;;
8777;SDS011;4425;50.872;4.712;2023-01-15T09:18:17;5.23;;;2.20;;
8777;SDS011;4425;50.872;4.712;2023-01-15T09:20:45;13.13;;;1.90;;
8777;SDS011;4425;50.872;4.712;2023-01-15T09:23:21;5.87;;;2.30;;
8777;SDS011;4425;50.872;4.712;2023-01-15T09:25:55;8.57;;;2.77;;
8777;SDS011;4425;50.872;4.712;2023-01-15T09:28:25;5.47;;;2.27;;
8777;SDS011;4425;50.872;4.712;2023-01-15T09:30:58;6.87;;;2.23;;
8777;SDS011;4425;50.872;4.712;2023-01-15T09:33:26;4.83;;;1.97;;
8777;SDS011;4425;50.872;4.712;2023-01-15T09:35:55;5.00;;;2.03;;
8777;SDS011;4425;50.872;4.712;2023-01-15T09:38:40;6.13;;;2.30;;
8777;SDS011;4425;50.872;4.712;2023-01-15T09:41:17;5.23;;;2.10;;
8777;SDS011;4425;50.872;4.712;2023-01-15T09:44:00;5.73;;;2.10;;
8777;SDS011;4425;50.872;4.712;2023-01-15T09:46:44;5.47;;;2.00;;
8777;SDS011;4425;50.872;4.712;2023-01-15T09:49:20;9.30;;;1.80;;
8777;SDS011;4425;50.872;4.712;2023-01-15T09:52:02;6.93;;;2.00;;
8777;SDS011;4425;50.872;4.712;2023-01-15T09:54:46;3.37;;;1.70;;
8777;SDS011;4425;50.872;4.712;2023-01-15T09:57:25;4.10;;;1.70;;
8777;SDS011;4425;50.872;4.712;2023-01-15T09:59:55;3.57;;;1.50;;
8777;SDS011;4425;50.872;4.712;2023-01-15T10:02:33;2.83;;;1.57;;
8777;SDS011;4425;50.872;4.712;2023-01-15T10:05:08;6.73;;;1.90;;
8777;SDS011;4425;50.872;4.712;2023-01-15T10:07:52;4.37;;;1.70;;
8777;SDS011;4425;50.872;4.712;2023-01-15T10:13:28;6.13;;;1.60;;
8777;SDS011;4425;50.872;4.712;2023-01-15T10:16:27;6.37;;;2.00;;
8777;SDS011;4425;50.872;4.712;2023-01-15T10:19:00;3.27;;;1.73;;
8777;SDS011;4425;50.872;4.712;2023-01-15T10:21:33;7.07;;;1.63;;
8777;SDS011;4425;50.872;4.712;2023-01-15T10:24:13;1.60;;;1.40;;
8777;SDS011;4425;50.872;4.712;2023-01-15T10:26:49;2.93;;;1.60;;
8777;SDS011;4425;50.872;4.712;2023-01-15T10:29:23;5.30;;;1.70;;
8777;SDS011;4425;50.872;4.712;2023-01-15T10:31:58;4.07;;;1.53;;
8777;SDS011;4425;50.872;4.712;2023-01-15T10:35:01;3.87;;;1.70;;
8777;SDS011;4425;50.872;4.712;2023-01-15T10:37:56;2.63;;;1.53;;
8777;SDS011;4425;50.872;4.712;2023-01-15T10:46:38;2.63;;;1.43;;
8777;SDS011;4425;50.872;4.712;2023-01-15T10:49:11;3.23;;;1.43;;
8777;SDS011;4425;50.872;4.712;2023-01-15T10:51:42;6.17;;;1.90;;
8777;SDS011;4425;50.872;4.712;2023-01-15T10:54:22;3.47;;;1.60;;
8777;SDS011;4425;50.872;4.712;2023-01-15T10:56:54;8.13;;;1.57;;
8777;SDS011;4425;50.872;4.712;2023-01-15T10:59:32;4.37;;;1.40;;
8777;SDS011;4425;50.872;4.712;2023-01-15T11:02:12;6.27;;;1.80;;
8777;SDS011;4425;50.872;4.712;2023-01-15T11:04:51;4.87;;;1.50;;
8777;SDS011;4425;50.872;4.712;2023-01-15T11:07:19;3.13;;;1.33;;
8777;SDS011;4425;50.872;4.712;2023-01-15T11:09:51;1.53;;;1.30;;
8777;SDS011;4425;50.872;4.712;2023-01-15T11:12:31;5.53;;;2.10;;
8777;SDS011;4425;50.872;4.712;2023-01-15T11:15:25;4.93;;;1.50;;
8777;SDS011;4425;50.872;4.712;2023-01-15T11:18:12;5.97;;;1.90;;
8777;SDS011;4425;50.872;4.712;2023-01-15T11:21:02;5.80;;;1.50;;
8777;SDS011;4425;50.872;4.712;2023-01-15T11:23:33;3.23;;;1.40;;
8777;SDS011;4425;50.872;4.712;2023-01-15T11:26:05;7.33;;;1.60;;
8777;SDS011;4425;50.872;4.712;2023-01-15T11:28:37;2.67;;;1.60;;
8777;SDS011;4425;50.872;4.712;2023-01-15T11:31:12;2.20;;;1.63;;
8777;SDS011;4425;50.872;4.712;2023-01-15T11:33:56;3.73;;;2.00;;
8777;SDS011;4425;50.872;4.712;2023-01-15T11:36:42;2.90;;;1.90;;
8777;SDS011;4425;50.872;4.712;2023-01-15T11:39:20;5.13;;;2.00;;
8777;SDS011;4425;50.872;4.712;2023-01-15T11:41:57;3.73;;;1.80;;
8777;SDS011;4425;50.872;4.712;2023-01-15T11:44:49;4.33;;;1.70;;
8777;SDS011;4425;50.872;4.712;2023-01-15T11:47:39;6.23;;;2.13;;
8777;SDS011;4425;50.872;4.712;2023-01-15T11:50:38;8.40;;;2.03;;
8777;SDS011;4425;50.872;4.712;2023-01-15T11:53:18;7.57;;;1.70;;
8777;SDS011;4425;50.872;4.712;2023-01-15T11:55:52;4.50;;;2.00;;
8777;SDS011;4425;50.872;4.712;2023-01-15T11:58:31;3.23;;;1.60;;
8777;SDS011;4425;50.872;4.712;2023-01-15T12:01:00;3.93;;;1.90;;
8777;SDS011;4425;50.872;4.712;2023-01-15T12:03:34;4.73;;;2.00;;
8777;SDS011;4425;50.872;4.712;2023-01-15T12:06:08;3.67;;;1.63;;
8777;SDS011;4425;50.872;4.712;2023-01-15T12:08:47;5.60;;;1.80;;
8777;SDS011;4425;50.872;4.712;2023-01-15T12:17:20;4.40;;;2.10;;
8777;SDS011;4425;50.872;4.712;2023-01-15T12:20:00;3.77;;;1.83;;
8777;SDS011;4425;50.872;4.712;2023-01-15T12:22:38;4.73;;;2.07;;
8777;SDS011;4425;50.872;4.712;2023-01-15T12:25:25;8.13;;;1.60;;
8777;SDS011;4425;50.872;4.712;2023-01-15T12:28:01;3.80;;;1.70;;
8777;SDS011;4425;50.872;4.712;2023-01-15T12:30:38;6.47;;;2.00;;
8777;SDS011;4425;50.872;4.712;2023-01-15T12:33:14;6.20;;;1.73;;
8777;SDS011;4425;50.872;4.712;2023-01-15T12:35:52;3.43;;;1.77;;
8777;SDS011;4425;50.872;4.712;2023-01-15T12:38:33;4.10;;;1.73;;
8777;SDS011;4425;50.872;4.712;2023-01-15T12:41:23;2.50;;;1.70;;
8777;SDS011;4425;50.872;4.712;2023-01-15T12:44:17;5.70;;;1.83;;
8777;SDS011;4425;50.872;4.712;2023-01-15T12:47:11;5.07;;;1.70;;
8777;SDS011;4425;50.872;4.712;2023-01-15T12:49:45;5.00;;;2.10;;
8777;SDS011;4425;50.872;4.712;2023-01-15T12:52:19;3.37;;;2.00;;
8777;SDS011;4425;50.872;4.712;2023-01-15T12:54:54;3.50;;;1.80;;
8777;SDS011;4425;50.872;4.712;2023-01-15T12:57:30;6.07;;;2.17;;
8777;SDS011;4425;50.872;4.712;2023-01-15T13:00:04;4.20;;;1.93;;
8777;SDS011;4425;50.872;4.712;2023-01-15T13:02:41;7.20;;;2.37;;
8777;SDS011;4425;50.872;4.712;2023-01-15T13:05:26;4.90;;;2.00;;
8777;SDS011;4425;50.872;4.712;2023-01-15T13:08:05;3.90;;;1.83;;
8777;SDS011;4425;50.872;4.712;2023-01-15T13:10:45;7.03;;;2.20;;
8777;SDS011;4425;50.872;4.712;2023-01-15T13:13:16;2.60;;;1.63;;
8777;SDS011;4425;50.872;4.712;2023-01-15T13:15:48;3.33;;;1.90;;
8777;SDS011;4425;50.872;4.712;2023-01-15T13:18:40;4.00;;;1.70;;
8777;SDS011;4425;50.872;4.712;2023-01-15T13:21:20;3.83;;;1.90;;
8777;SDS011;4425;50.872;4.712;2023-01-15T13:29:36;3.37;;;1.80;;
8777;SDS011;4425;50.872;4.712;2023-01-15T13:32:13;5.03;;;1.77;;
8777;SDS011;4425;50.872;4.712;2023-01-15T13:34:44;5.40;;;1.97;;
8777;SDS011;4425;50.872;4.712;2023-01-15T13:37:21;5.20;;;1.73;;
8777;SDS011;4425;50.872;4.712;2023-01-15T13:40:01;7.20;;;1.73;;
8777;SDS011;4425;50.872;4.712;2023-01-15T13:42:37;8.47;;;1.67;;
8777;SDS011;4425;50.872;4.712;2023-01-15T13:48:05;4.47;;;1.90;;
8777;SDS011;4425;50.872;4.712;2023-01-15T13:50:39;4.57;;;1.70;;
8777;SDS011;4425;50.872;4.712;2023-01-15T13:53:13;4.60;;;1.50;;
8777;SDS011;4425;50.872;4.712;2023-01-15T13:55:52;4.33;;;1.60;;
8777;SDS011;4425;50.872;4.712;2023-01-15T13:58:24;6.10;;;1.50;;
8777;SDS011;4425;50.872;4.712;2023-01-15T14:01:03;2.47;;;1.57;;
8777;SDS011;4425;50.872;4.712;2023-01-15T14:03:39;3.43;;;1.60;;
8777;SDS011;4425;50.872;4.712;2023-01-15T14:06:08;2.30;;;1.47;;
8777;SDS011;4425;50.872;4.712;2023-01-15T14:08:39;4.57;;;1.80;;
8777;SDS011;4425;50.872;4.712;2023-01-15T14:11:35;4.63;;;1.73;;
8777;SDS011;4425;50.872;4.712;2023-01-15T14:14:10;6.03;;;1.90;;
8777;SDS011;4425;50.872;4.712;2023-01-15T14:16:57;4.03;;;1.50;;
8777;SDS011;4425;50.872;4.712;2023-01-15T14:19:48;2.60;;;1.50;;
8777;SDS011;4425;50.872;4.712;2023-01-15T14:22:39;3.63;;;1.80;;
8777;SDS011;4425;50.872;4.712;2023-01-15T14:25:22;3.27;;;2.07;;
8777;SDS011;4425;50.872;4.712;2023-01-15T14:33:44;3.73;;;1.80;;
8777;SDS011;4425;50.872;4.712;2023-01-15T14:36:36;3.33;;;1.60;;
8777;SDS011;4425;50.872;4.712;2023-01-15T14:39:19;2.40;;;1.60;;
8777;SDS011;4425;50.872;4.712;2023-01-15T14:41:57;4.33;;;1.90;;
8777;SDS011;4425;50.872;4.712;2023-01-15T14:44:58;5.03;;;1.83;;
8777;SDS011;4425;50.872;4.712;2023-01-15T14:47:34;3.07;;;1.60;;
8777;SDS011;4425;50.872;4.712;2023-01-15T14:50:28;4.80;;;2.03;;
8777;SDS011;4425;50.872;4.712;2023-01-15T14:53:23;7.43;;;1.80;;
8777;SDS011;4425;50.872;4.712;2023-01-15T14:55:57;4.77;;;2.10;;
8777;SDS011;4425;50.872;4.712;2023-01-15T14:58:40;2.67;;;1.70;;
8777;SDS011;4425;50.872;4.712;2023-01-15T15:01:36;5.90;;;2.00;;
8777;SDS011;4425;50.872;4.712;2023-01-15T15:04:16;2.43;;;1.77;;
8777;SDS011;4425;50.872;4.712;2023-01-15T15:09:29;4.33;;;1.70;;
8777;SDS011;4425;50.872;4.712;2023-01-15T15:12:12;4.20;;;1.60;;
8777;SDS011;4425;50.872;4.712;2023-01-15T15:15:10;2.83;;;1.57;;
8777;SDS011;4425;50.872;4.712;2023-01-15T15:24:31;4.20;;;2.00;;
8777;SDS011;4425;50.872;4.712;2023-01-15T15:27:07;1.60;;;1.40;;
8777;SDS011;4425;50.872;4.712;2023-01-15T15:29:41;2.80;;;1.50;;
8777;SDS011;4425;50.872;4.712;2023-01-15T15:32:14;4.77;;;1.50;;
8777;SDS011;4425;50.872;4.712;2023-01-15T15:34:44;3.37;;;1.73;;
8777;SDS011;4425;50.872;4.712;2023-01-15T15:37:21;3.87;;;1.40;;
8777;SDS011;4425;50.872;4.712;2023-01-15T15:39:51;3.37;;;1.87;;
8777;SDS011;4425;50.872;4.712;2023-01-15T15:42:23;1.83;;;1.70;;
8777;SDS011;4425;50.872;4.712;2023-01-15T15:45:14;4.60;;;1.80;;
8777;SDS011;4425;50.872;4.712;2023-01-15T15:51:05;3.23;;;1.80;;
8777;SDS011;4425;50.872;4.712;2023-01-15T15:56:52;3.20;;;1.50;;
8777;SDS011;4425;50.872;4.712;2023-01-15T15:59:27;3.30;;;1.80;;
8777;SDS011;4425;50.872;4.712;2023-01-15T16:01:57;4.93;;;1.70;;
8777;SDS011;4425;50.872;4.712;2023-01-15T16:04:29;4.53;;;1.63;;
8777;SDS011;4425;50.872;4.712;2023-01-15T16:06:57;2.97;;;1.67;;
8777;SDS011;4425;50.872;4.712;2023-01-15T16:12:28;2.70;;;1.70;;
8777;SDS011;4425;50.872;4.712;2023-01-15T16:14:58;1.90;;;1.80;;
8777;SDS011;4425;50.872;4.712;2023-01-15T16:17:28;4.70;;;1.80;;
8777;SDS011;4425;50.872;4.712;2023-01-15T16:20:05;4.87;;;1.80;;
8777;SDS011;4425;50.872;4.712;2023-01-15T16:22:44;2.97;;;1.60;;
8777;SDS011;4425;50.872;4.712;2023-01-15T16:25:21;4.77;;;1.80;;
8777;SDS011;4425;50.872;4.712;2023-01-15T16:27:56;4.17;;;2.13;;
8777;SDS011;4425;50.872;4.712;2023-01-15T16:30:27;4.97;;;1.87;;
8777;SDS011;4425;50.872;4.712;2023-01-15T16:32:58;5.17;;;2.27;;
8777;SDS011;4425;50.872;4.712;2023-01-15T16:35:27;11.50;;;2.77;;
8777;SDS011;4425;50.872;4.712;2023-01-15T16:37:58;2.80;;;1.73;;
8777;SDS011;4425;50.872;4.712;2023-01-15T16:40:33;5.30;;;2.03;;
8777;SDS011;4425;50.872;4.712;2023-01-15T16:43:06;3.40;;;2.03;;
8777;SDS011;4425;50.872;4.712;2023-01-15T16:45:37;7.83;;;2.50;;
8777;SDS011;4425;50.872;4.712;2023-01-15T16:48:25;3.93;;;2.57;;
8777;SDS011;4425;50.872;4.712;2023-01-15T16:50:58;3.47;;;2.20;;
8777;SDS011;4425;50.872;4.712;2023-01-15T16:53:50;3.90;;;2.20;;
8777;SDS011;4425;50.872;4.712;2023-01-15T16:56:26;5.73;;;2.80;;
8777;SDS011;4425;50.872;4.712;2023-01-15T16:59:13;6.00;;;2.67;;